Time;durP1;ratioP1;P1;durP2;ratioP2;P2;SDS_P1;SDS_P2;PMS_P1;PMS_P2;Temp;Humidity;BMP_temperature;BMP_pressure;BME280_temperature;BME280_humidity;BME280_pressure;Samples;Min_cycle;Max_cycle;Signal;HPM_P1;HPM_P2
2021/03/07 00:00:39;;;;;;;13.02;6.88;;;;;;;-0.42;56.19;95860.78;10323420;28;20057;-76
2021/03/07 00:05:40;;;;;;;12.50;6.60;;;;;;;-0.27;56.19;95863.47;10321719;28;20029;-76
2021/03/07 00:10:40;;;;;;;13.83;6.73;;;;;;;-0.09;56.53;95863.97;10322813;28;20030;-76
2021/03/07 00:15:40;;;;;;;11.90;6.97;;;;;;;-0.52;55.36;95859.22;10323178;28;20289;-77
2021/03/07 00:20:41;;;;;;;14.23;6.80;;;;;;;-0.53;56.27;95857.56;10322526;28;20030;-76
2021/03/07 00:25:41;;;;;;;11.93;6.45;;;;;;;-0.38;57.08;95856.78;10322457;28;20704;-76
2021/03/07 00:30:41;;;;;;;15.10;6.80;;;;;;;-0.72;57.03;95850.09;10322094;28;20109;-76
2021/03/07 00:35:42;;;;;;;13.67;7.07;;;;;;;-0.65;56.79;95844.94;10320131;28;20292;-76
2021/03/07 00:40:42;;;;;;;11.38;6.63;;;;;;;-0.65;58.04;95850.22;10321413;28;20053;-76
2021/03/07 00:45:43;;;;;;;13.35;8.35;;;;;;;-0.72;57.19;95853.53;10321669;28;20030;-76
2021/03/07 00:50:44;;;;;;;8.67;6.43;;;;;;;-1.05;57.23;95842.34;10321822;28;20029;-76
2021/03/07 00:55:44;;;;;;;10.68;7.45;;;;;;;-0.88;58.92;95843.09;10321530;28;20269;-76
2021/03/07 01:00:46;;;;;;;13.70;8.30;;;;;;;-0.94;61.50;95841.16;10322218;28;20088;-76
2021/03/07 01:05:47;;;;;;;14.18;8.02;;;;;;;-1.39;60.27;95833.78;10321445;28;20046;-76
2021/03/07 01:10:47;;;;;;;13.95;7.47;;;;;;;-1.57;62.28;95822.66;10321386;28;20532;-76
2021/03/07 01:15:48;;;;;;;11.82;6.75;;;;;;;-1.64;60.82;95827.78;10321755;28;20089;-76
2021/03/07 01:20:49;;;;;;;12.13;8.57;;;;;;;-1.60;62.19;95838.81;10321738;28;20110;-76
2021/03/07 01:25:49;;;;;;;14.18;7.40;;;;;;;-1.45;63.50;95828.34;10319917;28;20261;-76
2021/03/07 01:30:50;;;;;;;14.40;8.48;;;;;;;-1.42;63.13;95833.31;10321502;28;20390;-76
2021/03/07 01:35:50;;;;;;;20.33;7.18;;;;;;;-1.49;61.65;95824.41;10319593;28;20040;-76
2021/03/07 01:40:52;;;;;;;11.43;8.85;;;;;;;-1.55;61.62;95818.00;10318246;28;20088;-76
2021/03/07 01:45:54;;;;;;;16.38;8.43;;;;;;;-1.88;61.80;95812.84;10320580;28;20033;-76
2021/03/07 01:50:54;;;;;;;15.95;9.43;;;;;;;-1.96;64.39;95813.69;10321048;28;20046;-76
2021/03/07 01:55:56;;;;;;;11.80;7.53;;;;;;;-2.14;65.70;95802.53;10321085;28;20109;-77
2021/03/07 02:00:57;;;;;;;16.73;8.48;;;;;;;-2.21;65.35;95798.94;10320827;28;20058;-76
2021/03/07 02:05:57;;;;;;;13.70;9.38;;;;;;;-2.13;67.53;95788.38;10323924;28;20100;-76
2021/03/07 02:11:02;;;;;;;13.07;9.65;;;;;;;-2.12;65.29;95790.00;10324630;28;20034;-76
2021/03/07 02:16:06;;;;;;;15.63;9.43;;;;;;;-2.06;67.02;95792.78;10324519;28;20034;-76
2021/03/07 02:21:39;;;;;;;11.50;7.63;;;;;;;-1.96;68.03;95797.88;10325140;28;20062;-76
2021/03/07 02:26:47;;;;;;;13.55;9.82;;;;;;;-1.92;67.30;95790.47;10326141;28;20026;-76
2021/03/07 02:31:51;;;;;;;10.13;8.70;;;;;;;-2.13;66.10;95791.84;10325401;28;20574;-76
2021/03/07 02:36:56;;;;;;;13.98;7.60;;;;;;;-2.33;65.53;95796.66;10325023;28;20030;-76
2021/03/07 02:42:13;;;;;;;11.80;8.52;;;;;;;-2.28;65.22;95780.34;10324714;28;20129;-76
2021/03/07 02:47:16;;;;;;;15.38;9.80;;;;;;;-2.30;66.21;95783.13;10318619;28;20030;-76
2021/03/07 02:52:18;;;;;;;24.50;10.63;;;;;;;-2.21;69.82;95780.50;10322676;28;20106;-76
2021/03/07 02:57:20;;;;;;;16.08;10.02;;;;;;;-2.26;68.79;95773.91;10322906;28;20038;-76
2021/03/07 03:02:24;;;;;;;11.75;9.80;;;;;;;-2.26;70.29;95775.72;10322931;28;20037;-76
2021/03/07 03:07:28;;;;;;;14.15;9.30;;;;;;;-2.24;69.40;95782.47;10322337;28;20721;-75
2021/03/07 03:12:31;;;;;;;16.48;10.55;;;;;;;-2.29;69.26;95781.31;10321728;28;20026;-76
2021/03/07 03:17:34;;;;;;;12.95;8.75;;;;;;;-2.32;71.30;95774.56;10320473;28;20120;-75
2021/03/07 03:22:34;;;;;;;11.02;8.27;;;;;;;-2.25;70.32;95778.22;10321681;28;20030;-76
2021/03/07 03:27:36;;;;;;;12.20;8.80;;;;;;;-2.26;70.42;95779.19;10322338;28;20053;-76
2021/03/07 03:32:36;;;;;;;12.82;10.75;;;;;;;-2.40;70.65;95774.56;10325106;28;20371;-76
2021/03/07 03:37:38;;;;;;;15.52;9.52;;;;;;;-2.33;72.17;95775.59;10324023;28;20038;-76
2021/03/07 03:42:41;;;;;;;12.93;9.32;;;;;;;-2.37;72.34;95769.00;10283540;28;20039;-76
2021/03/07 03:47:46;;;;;;;21.00;13.55;;;;;;;-2.37;72.09;95784.81;10283557;28;20084;-76
2021/03/07 03:52:49;;;;;;;14.80;9.60;;;;;;;-2.49;72.20;95780.84;10284127;28;20390;-76
2021/03/07 03:57:55;;;;;;;15.80;8.63;;;;;;;-2.58;71.99;95787.94;10284861;28;20023;-76
2021/03/07 04:02:58;;;;;;;13.43;10.18;;;;;;;-2.66;73.11;95783.50;10298123;28;20130;-76
2021/03/07 04:08:00;;;;;;;11.63;8.90;;;;;;;-2.61;75.76;95781.19;10299604;28;20113;-76
2021/03/07 04:13:02;;;;;;;16.60;11.55;;;;;;;-2.60;77.55;95780.19;10301274;28;20031;-76
2021/03/07 04:18:03;;;;;;;14.98;10.13;;;;;;;-2.61;79.08;95783.00;10299499;28;20030;-76
2021/03/07 04:23:03;;;;;;;14.55;10.18;;;;;;;-2.65;81.16;95772.00;10299511;28;20030;-76
2021/03/07 04:28:05;;;;;;;14.57;11.63;;;;;;;-2.67;80.42;95776.56;10300328;28;20094;-76
2021/03/07 04:33:07;;;;;;;12.38;10.45;;;;;;;-2.74;80.95;95775.59;10300387;28;20118;-76
2021/03/07 04:38:09;;;;;;;20.23;10.68;;;;;;;-2.69;80.57;95778.56;10300891;28;20050;-76
2021/03/07 04:43:09;;;;;;;19.80;11.13;;;;;;;-2.66;78.84;95772.16;10299698;28;20037;-76
2021/03/07 04:48:10;;;;;;;17.23;11.40;;;;;;;-2.73;81.17;95772.00;10300835;28;20041;-76
2021/03/07 04:53:10;;;;;;;23.65;9.75;;;;;;;-2.72;80.47;95778.06;10299913;28;20033;-76
2021/03/07 04:58:10;;;;;;;19.90;9.38;;;;;;;-2.85;80.25;95778.56;10300078;28;20034;-76
2021/03/07 05:03:11;;;;;;;21.63;10.97;;;;;;;-2.83;83.52;95779.19;10299801;28;20029;-76
2021/03/07 05:08:11;;;;;;;21.80;11.80;;;;;;;-2.80;87.31;95777.06;10300055;28;20286;-76
2021/03/07 05:13:12;;;;;;;18.65;11.48;;;;;;;-2.87;84.85;95777.91;10299767;28;20035;-76
2021/03/07 05:18:12;;;;;;;17.23;9.50;;;;;;;-2.94;81.81;95783.81;10298606;28;20045;-77
2021/03/07 05:23:12;;;;;;;15.27;12.63;;;;;;;-3.02;80.89;95796.13;10298155;28;20278;-77
2021/03/07 05:28:13;;;;;;;16.30;10.05;;;;;;;-2.79;77.37;95793.66;10299406;28;20475;-77
2021/03/07 05:33:16;;;;;;;17.35;12.05;;;;;;;-2.35;75.47;95792.53;10305150;28;20038;-76
2021/03/07 05:38:16;;;;;;;12.15;9.43;;;;;;;-1.94;76.06;95795.06;10326675;28;20421;-77
2021/03/07 05:43:18;;;;;;;18.50;11.25;;;;;;;-1.61;75.54;95792.34;10329035;28;20037;-76
2021/03/07 05:48:18;;;;;;;17.25;11.10;;;;;;;-1.33;71.17;95792.72;10328815;28;20034;-77
2021/03/07 05:53:19;;;;;;;22.53;12.27;;;;;;;-1.11;69.83;95790.28;10315872;28;20397;-76
2021/03/07 05:58:21;;;;;;;22.10;13.55;;;;;;;-0.37;69.10;95784.47;10326220;28;20408;-77
2021/03/07 06:03:22;;;;;;;22.15;12.27;;;;;;;-0.03;67.10;95793.72;10325304;28;20037;-77
2021/03/07 06:08:22;;;;;;;32.20;14.13;;;;;;;0.36;62.04;95787.38;10327746;28;20022;-76
2021/03/07 06:13:23;;;;;;;24.60;14.77;;;;;;;0.81;61.35;95780.22;10326838;28;20034;-76
2021/03/07 06:18:23;;;;;;;29.25;13.48;;;;;;;1.53;58.43;95775.84;10326830;28;20460;-76
2021/03/07 06:23:35;;;;;;;24.80;13.98;;;;;;;2.00;55.32;95784.16;10326526;28;20138;-76
2021/03/07 06:28:36;;;;;;;28.38;14.25;;;;;;;1.94;54.55;95776.16;10306151;28;20058;-76
2021/03/07 06:33:37;;;;;;;27.35;13.80;;;;;;;2.86;52.14;95766.22;10292341;28;20117;-77
2021/03/07 06:38:49;;;;;;;25.73;15.18;;;;;;;3.61;50.49;95768.84;10327427;28;20070;-77
2021/03/07 06:43:50;;;;;;;26.83;12.57;;;;;;;4.46;47.54;95773.47;10327340;28;20165;-77
2021/03/07 06:48:50;;;;;;;25.35;11.63;;;;;;;5.79;44.35;95763.97;10286699;28;20065;-76
2021/03/07 06:53:51;;;;;;;23.77;12.55;;;;;;;6.23;41.96;95758.69;10286859;28;20031;-78
2021/03/07 06:59:20;;;;;;;25.60;12.02;;;;;;;7.82;40.03;95758.75;10286510;28;20027;-78
2021/03/07 07:04:21;;;;;;;;;;;;;;;8.24;37.98;95747.16;10286531;28;20093;-78
2021/03/07 07:09:24;;;;;;;23.13;11.43;;;;;;;8.25;38.20;95748.78;10285953;28;20537;-77
2021/03/07 07:14:42;;;;;;;19.52;10.15;;;;;;;8.51;37.21;95748.34;10285376;28;20042;-77
2021/03/07 07:19:44;;;;;;;18.27;10.07;;;;;;;7.89;37.03;95740.72;10288216;28;20045;-77
2021/03/07 07:24:45;;;;;;;21.42;10.45;;;;;;;7.99;35.47;95749.00;10325144;28;20049;-76
2021/03/07 07:29:45;;;;;;;22.55;11.13;;;;;;;7.58;37.30;95744.53;10323891;28;20105;-77
2021/03/07 07:34:56;;;;;;;17.05;9.52;;;;;;;8.36;36.25;95739.94;10323560;28;20034;-77
2021/03/07 07:39:57;;;;;;;17.23;11.18;;;;;;;8.85;36.29;95727.06;10322946;28;20038;-76
2021/03/07 07:45:00;;;;;;;18.30;10.60;;;;;;;9.67;35.16;95721.56;10323844;28;20052;-77
2021/03/07 07:50:01;;;;;;;19.33;10.40;;;;;;;9.66;34.09;95723.44;10323291;28;20070;-76
2021/03/07 07:55:04;;;;;;;18.27;9.73;;;;;;;8.85;35.08;95710.19;10293705;28;20122;-76
2021/03/07 08:00:07;;;;;;;16.67;9.70;;;;;;;8.18;37.59;95711.41;10282271;28;20033;-76
2021/03/07 08:05:20;;;;;;;22.20;9.65;;;;;;;9.26;34.76;95702.88;10282652;28;20031;-75
2021/03/07 08:10:44;;;;;;;18.85;9.77;;;;;;;9.75;33.77;95695.16;10282438;28;20022;-74
2021/03/07 08:15:51;;;;;;;16.15;9.90;;;;;;;9.00;34.89;95691.69;10282560;28;20027;-76
2021/03/07 08:20:52;;;;;;;16.83;9.27;;;;;;;8.13;36.82;95688.00;10296960;28;20037;-76
2021/03/07 08:25:52;;;;;;;19.17;9.33;;;;;;;7.62;36.80;95679.63;10282473;28;20053;-73
2021/03/07 08:30:57;;;;;;;21.60;10.30;;;;;;;7.53;37.14;95679.16;10281811;28;20274;-74
2021/03/07 08:36:17;;;;;;;18.88;10.40;;;;;;;9.60;35.37;95654.66;10301918;28;20027;-73
2021/03/07 08:41:36;;;;;;;19.35;8.85;;;;;;;11.53;32.59;95644.91;10321240;28;20042;-74
2021/03/07 08:46:39;;;;;;;16.92;10.25;;;;;;;12.60;30.10;95640.47;10321738;28;20026;-74
2021/03/07 08:51:42;;;;;;;16.20;9.32;;;;;;;13.38;28.84;95619.94;10321392;28;20026;-74
2021/03/07 08:56:43;;;;;;;22.67;9.90;;;;;;;13.62;28.18;95623.72;10321211;28;20031;-74
2021/03/07 09:01:49;;;;;;;20.42;10.05;;;;;;;12.42;30.09;95618.31;10321434;28;20430;-74
2021/03/07 09:06:52;;;;;;;20.35;11.60;;;;;;;10.75;32.85;95607.56;10320041;28;20158;-74
2021/03/07 09:11:57;;;;;;;17.40;10.25;;;;;;;10.42;32.95;95604.81;10324663;28;20022;-75
2021/03/07 09:16:59;;;;;;;20.17;11.07;;;;;;;9.37;35.37;95605.44;10288091;28;20061;-74
2021/03/07 09:22:23;;;;;;;20.30;11.27;;;;;;;7.80;36.65;95587.72;10308475;28;20057;-74
2021/03/07 09:27:26;;;;;;;23.13;11.70;;;;;;;7.93;38.78;95586.66;10327132;28;20084;-74
2021/03/07 09:32:28;;;;;;;21.13;12.43;;;;;;;7.99;39.66;95574.19;10328544;28;20026;-75
2021/03/07 09:37:28;;;;;;;17.25;10.98;;;;;;;8.75;38.01;95565.22;10328502;28;20489;-75
2021/03/07 09:42:29;;;;;;;21.65;10.55;;;;;;;9.11;37.54;95555.13;10328245;28;20105;-75
2021/03/07 09:47:29;;;;;;;15.98;9.10;;;;;;;9.68;35.58;95546.06;10328311;28;20030;-75
2021/03/07 09:52:30;;;;;;;14.87;9.50;;;;;;;9.10;36.83;95532.03;10326568;28;20026;-76
2021/03/07 09:57:30;;;;;;;15.75;9.93;;;;;;;8.99;37.84;95539.13;10324471;28;20269;-76
2021/03/07 10:02:35;;;;;;;18.17;9.70;;;;;;;9.84;37.82;95528.28;10327202;28;20113;-75
2021/03/07 10:07:35;;;;;;;14.35;10.27;;;;;;;10.29;37.32;95513.78;10303158;28;20506;-75
2021/03/07 10:12:43;;;;;;;15.60;8.83;;;;;;;12.38;32.90;95504.00;10285928;28;20026;-75
2021/03/07 10:17:43;;;;;;;13.20;8.30;;;;;;;16.27;27.98;95476.47;10309791;28;20368;-76
2021/03/07 10:22:46;;;;;;;19.13;8.43;;;;;;;18.70;25.33;95459.47;10285665;28;20077;-76
2021/03/07 10:27:54;;;;;;;14.55;7.18;;;;;;;19.80;23.73;95449.19;10286846;28;20365;-76
2021/03/07 10:33:23;;;;;;;13.63;7.53;;;;;;;20.70;23.00;95436.28;10295334;28;20022;-76
2021/03/07 10:38:23;;;;;;;12.13;7.85;;;;;;;20.42;24.43;95431.09;10325797;28;20050;-76
2021/03/07 10:43:24;;;;;;;11.93;6.78;;;;;;;21.14;22.69;95410.53;10326423;28;20038;-76
2021/03/07 10:48:30;;;;;;;14.00;6.93;;;;;;;21.41;21.82;95397.63;10325210;28;20022;-76
2021/03/07 10:53:31;;;;;;;10.73;6.57;;;;;;;22.35;21.11;95385.78;10325902;28;20030;-77
2021/03/07 10:58:31;;;;;;;10.80;7.03;;;;;;;21.05;21.64;95373.41;10325629;28;20461;-75
2021/03/07 11:03:32;;;;;;;11.93;7.40;;;;;;;21.96;21.77;95363.16;10326213;28;20026;-76
2021/03/07 11:08:33;;;;;;;14.05;7.22;;;;;;;21.83;21.68;95354.00;10321737;28;20029;-74
2021/03/07 11:13:34;;;;;;;10.20;7.07;;;;;;;21.13;21.21;95340.59;10317289;28;20033;-74
2021/03/07 11:18:35;;;;;;;10.07;6.28;;;;;;;21.18;21.28;95334.13;10326232;28;20028;-74
2021/03/07 11:23:36;;;;;;;9.75;6.32;;;;;;;21.18;21.33;95323.22;10298290;28;20077;-75
2021/03/07 11:28:36;;;;;;;11.00;6.95;;;;;;;20.33;22.71;95316.41;10304189;28;20133;-76
2021/03/07 11:33:36;;;;;;;10.70;7.30;;;;;;;17.08;24.43;95316.19;10306239;28;20030;-75
2021/03/07 11:38:37;;;;;;;13.50;8.40;;;;;;;15.53;27.46;95306.03;10309911;28;20354;-75
2021/03/07 11:43:37;;;;;;;18.40;9.17;;;;;;;14.82;28.66;95303.88;10308003;28;20026;-76
2021/03/07 11:48:38;;;;;;;16.33;10.37;;;;;;;13.58;30.20;95293.16;10309388;28;20289;-76
2021/03/07 11:53:38;;;;;;;12.33;9.10;;;;;;;11.50;32.81;95295.50;10309583;28;20026;-75
2021/03/07 11:58:38;;;;;;;14.80;9.77;;;;;;;9.81;36.97;95292.53;10303986;28;20301;-75
2021/03/07 12:03:39;;;;;;;19.60;11.10;;;;;;;9.56;37.12;95277.81;10313551;28;20277;-74
2021/03/07 12:08:39;;;;;;;19.87;11.10;;;;;;;7.83;40.42;95271.47;10340069;28;20036;-74
2021/03/07 12:13:39;;;;;;;16.40;10.25;;;;;;;8.07;40.72;95265.16;10323342;28;20729;-74
2021/03/07 12:18:41;;;;;;;17.60;10.70;;;;;;;8.23;40.73;95260.84;10320682;28;20034;-75
2021/03/07 12:23:42;;;;;;;16.35;9.90;;;;;;;8.10;40.93;95260.13;10303235;28;20031;-74
2021/03/07 12:28:42;;;;;;;19.67;10.68;;;;;;;7.80;41.48;95255.09;10298793;28;20046;-74
2021/03/07 12:33:42;;;;;;;16.07;10.03;;;;;;;7.56;42.20;95235.69;10288127;28;20462;-74
2021/03/07 12:38:43;;;;;;;19.37;10.47;;;;;;;7.83;42.38;95228.66;10301509;28;20295;-75
2021/03/07 12:43:44;;;;;;;15.30;9.95;;;;;;;8.07;41.88;95217.00;10300110;28;20368;-74
2021/03/07 12:48:44;;;;;;;16.60;9.73;;;;;;;8.12;41.92;95214.38;10319338;28;20109;-74
2021/03/07 12:53:44;;;;;;;15.35;10.35;;;;;;;8.29;42.05;95204.44;10322742;28;20549;-74
2021/03/07 12:58:45;;;;;;;17.47;11.00;;;;;;;8.01;42.77;95194.69;10321934;28;20026;-74
2021/03/07 13:03:45;;;;;;;16.27;10.57;;;;;;;7.95;42.39;95184.94;10321991;28;20269;-73
2021/03/07 13:08:45;;;;;;;17.90;10.48;;;;;;;8.00;42.70;95185.03;10322519;28;20806;-75
2021/03/07 13:13:46;;;;;;;16.97;10.13;;;;;;;7.96;42.57;95173.19;10322279;28;20116;-75
2021/03/07 13:18:46;;;;;;;18.23;10.18;;;;;;;7.98;41.91;95163.03;10322307;28;20287;-74
2021/03/07 13:23:47;;;;;;;19.63;9.65;;;;;;;7.92;42.27;95156.81;10322827;28;20041;-74
2021/03/07 13:28:47;;;;;;;17.43;10.23;;;;;;;7.87;42.39;95146.84;10322038;28;20134;-74
2021/03/07 13:33:47;;;;;;;16.80;9.50;;;;;;;7.60;43.50;95149.38;10320944;28;20277;-75
2021/03/07 13:38:48;;;;;;;15.52;9.43;;;;;;;7.73;43.76;95137.56;10293938;28;20460;-75
2021/03/07 13:43:48;;;;;;;21.63;10.80;;;;;;;7.85;43.33;95129.41;10281691;28;20065;-75
2021/03/07 13:48:49;;;;;;;14.77;9.43;;;;;;;7.85;43.19;95126.72;10315587;28;20026;-75
2021/03/07 13:53:49;;;;;;;18.83;10.43;;;;;;;7.64;43.12;95122.97;10321740;28;20102;-75
2021/03/07 13:58:50;;;;;;;19.35;9.13;;;;;;;7.51;43.67;95124.91;10326214;28;20346;-75
2021/03/07 14:03:50;;;;;;;16.93;8.80;;;;;;;7.52;44.12;95118.50;10328368;28;20710;-75
2021/03/07 14:08:51;;;;;;;21.00;9.82;;;;;;;7.56;44.02;95120.69;10328278;28;20510;-75
2021/03/07 14:13:51;;;;;;;16.45;7.88;;;;;;;7.46;43.53;95119.47;10328150;28;20030;-75
2021/03/07 14:18:52;;;;;;;15.87;10.03;;;;;;;7.48;43.67;95114.69;10327508;28;20046;-74
2021/03/07 14:23:52;;;;;;;19.70;8.73;;;;;;;7.36;43.43;95106.75;10296154;28;20282;-74
2021/03/07 14:28:52;;;;;;;14.97;8.80;;;;;;;7.40;43.61;95095.59;10287104;28;20102;-74
2021/03/07 14:33:53;;;;;;;20.37;8.93;;;;;;;7.41;43.93;95091.84;10303731;28;21179;-75
2021/03/07 14:38:53;;;;;;;17.98;8.00;;;;;;;7.30;43.14;95086.34;10326553;28;20418;-74
2021/03/07 14:43:54;;;;;;;15.23;8.70;;;;;;;7.16;43.93;95074.38;10328000;28;20030;-74
2021/03/07 14:48:54;;;;;;;19.00;9.35;;;;;;;7.24;44.43;95073.13;10325820;28;20022;-74
2021/03/07 14:53:54;;;;;;;17.65;8.23;;;;;;;7.14;44.10;95065.75;10326650;28;20083;-74
2021/03/07 14:58:55;;;;;;;22.40;7.53;;;;;;;7.05;43.77;95057.34;10325537;28;20456;-74
2021/03/07 15:03:55;;;;;;;14.85;8.48;;;;;;;7.08;44.46;95056.06;10320622;28;20030;-74
2021/03/07 15:08:58;;;;;;;15.73;8.40;;;;;;;7.05;44.72;95043.16;10325625;28;20019;-73
2021/03/07 15:13:58;;;;;;;12.48;7.97;;;;;;;6.97;44.47;95050.53;10326041;28;20656;-75
2021/03/07 15:18:59;;;;;;;13.97;6.63;;;;;;;6.96;44.78;95037.41;10325651;28;20068;-74
2021/03/07 15:24:00;;;;;;;18.73;8.05;;;;;;;6.83;45.11;95042.03;10298412;28;20033;-74
2021/03/07 15:29:00;;;;;;;13.80;7.97;;;;;;;6.66;45.21;95038.53;10306437;28;20025;-74
2021/03/07 15:34:01;;;;;;;15.77;8.30;;;;;;;6.70;45.77;95022.81;10325322;28;20037;-74
2021/03/07 15:39:01;;;;;;;11.80;7.65;;;;;;;6.70;45.94;95012.97;10324523;28;20332;-74
2021/03/07 15:44:02;;;;;;;17.17;7.28;;;;;;;6.59;45.99;95011.19;10323831;28;20117;-73
2021/03/07 15:49:02;;;;;;;18.65;8.02;;;;;;;6.54;46.77;95008.41;10323971;28;20041;-74
2021/03/07 15:54:03;;;;;;;14.10;8.15;;;;;;;6.40;46.82;95005.22;10324085;28;20030;-73
2021/03/07 15:59:03;;;;;;;16.67;7.88;;;;;;;6.30;47.41;95006.66;10324215;28;20117;-75
2021/03/07 16:04:04;;;;;;;20.30;8.05;;;;;;;6.18;47.77;95013.91;10320816;28;20033;-75
2021/03/07 16:09:06;;;;;;;16.52;8.35;;;;;;;6.17;48.28;95006.97;10324059;28;20109;-74
2021/03/07 16:14:06;;;;;;;17.60;7.90;;;;;;;6.14;48.21;95004.78;10300639;28;20058;-74
2021/03/07 16:19:07;;;;;;;17.03;8.90;;;;;;;5.96;48.72;95003.88;10296535;28;20110;-73
2021/03/07 16:24:07;;;;;;;17.63;9.88;;;;;;;5.88;49.15;94993.56;10305326;28;20780;-74
2021/03/07 16:29:08;;;;;;;17.17;8.73;;;;;;;5.82;49.31;94994.53;10305670;28;20026;-74
2021/03/07 16:34:08;;;;;;;19.67;10.37;;;;;;;5.79;49.64;94992.31;10284841;28;20035;-74
2021/03/07 16:39:09;;;;;;;18.00;10.57;;;;;;;5.69;49.73;94986.78;10299209;28;20468;-74
2021/03/07 16:44:10;;;;;;;15.15;9.40;;;;;;;5.54;50.23;94984.63;10322149;28;20885;-75
2021/03/07 16:49:10;;;;;;;23.77;11.00;;;;;;;5.67;50.94;94984.38;10321119;28;20129;-75
2021/03/07 16:54:11;;;;;;;27.20;12.85;;;;;;;5.70;50.84;94978.56;10322710;28;20277;-74
2021/03/07 16:59:12;;;;;;;26.80;15.00;;;;;;;5.46;51.56;94991.13;10322580;28;20042;-74
2021/03/07 17:04:12;;;;;;;30.35;16.33;;;;;;;5.46;52.25;94989.25;10321355;28;20085;-74
2021/03/07 17:09:13;;;;;;;41.47;21.40;;;;;;;5.39;52.55;94987.78;10322550;28;20030;-74
2021/03/07 17:14:13;;;;;;;42.38;19.38;;;;;;;5.12;54.42;94985.59;10319689;28;20790;-75
2021/03/07 17:19:14;;;;;;;37.60;18.30;;;;;;;4.96;55.87;94982.56;10317329;28;20042;-74
2021/03/07 17:24:17;;;;;;;37.20;18.27;;;;;;;4.78;56.63;94988.81;10305716;28;20688;-74
2021/03/07 17:29:17;;;;;;;36.85;17.58;;;;;;;4.66;58.29;94985.34;10297266;28;20037;-74
2021/03/07 17:34:17;;;;;;;46.37;21.83;;;;;;;4.49;60.57;94995.03;10311469;28;20030;-74
2021/03/07 17:39:18;;;;;;;38.53;18.43;;;;;;;4.37;62.14;94992.34;10329437;28;20315;-75
2021/03/07 17:44:18;;;;;;;35.60;18.50;;;;;;;4.27;63.66;94980.41;10328864;28;20046;-75
2021/03/07 17:49:19;;;;;;;29.85;15.93;;;;;;;4.22;64.55;94980.28;10326261;28;20041;-73
2021/03/07 17:54:20;;;;;;;45.03;17.65;;;;;;;4.02;66.45;94979.72;10311180;28;20141;-75
2021/03/07 17:59:20;;;;;;;40.40;18.80;;;;;;;3.84;67.87;94984.06;10304869;28;20763;-74
2021/03/07 18:04:20;;;;;;;35.55;17.48;;;;;;;3.64;70.53;94992.28;10322147;28;20113;-74
2021/03/07 18:09:21;;;;;;;32.00;14.57;;;;;;;3.54;73.02;94979.50;10328259;28;20022;-74
2021/03/07 18:14:25;;;;;;;26.00;13.70;;;;;;;3.56;74.03;94971.34;10328691;28;20649;-74
2021/03/07 18:19:25;;;;;;;24.77;12.63;;;;;;;3.49;74.38;94986.53;10329153;28;20030;-74
2021/03/07 18:24:26;;;;;;;28.00;12.40;;;;;;;3.42;73.95;94991.94;10327820;28;20478;-74
2021/03/07 18:29:26;;;;;;;28.63;12.70;;;;;;;3.46;74.46;94977.19;10328049;28;20311;-74
2021/03/07 18:34:26;;;;;;;24.27;10.90;;;;;;;3.53;73.82;94985.88;10300648;28;20035;-75
2021/03/07 18:39:27;;;;;;;22.42;11.50;;;;;;;3.51;73.88;94989.78;10287095;28;20298;-73
2021/03/07 18:44:28;;;;;;;21.30;12.18;;;;;;;3.45;75.13;94985.34;10286745;28;20035;-73
2021/03/07 18:49:29;;;;;;;24.90;11.82;;;;;;;3.43;75.24;94988.22;10287198;28;20035;-73
2021/03/07 18:54:29;;;;;;;34.60;16.73;;;;;;;3.16;78.70;94985.88;10285042;28;20091;-73
2021/03/07 18:59:30;;;;;;;36.55;16.58;;;;;;;3.08;80.19;94991.47;10286614;28;20294;-74
2021/03/07 19:04:31;;;;;;;42.38;19.38;;;;;;;3.06;82.54;94981.06;10301459;28;20062;-74
2021/03/07 19:09:31;;;;;;;42.92;20.92;;;;;;;2.99;83.03;94988.28;10324597;28;20037;-73
2021/03/07 19:14:32;;;;;;;54.45;24.20;;;;;;;2.85;86.74;94981.50;10326688;28;20042;-73
2021/03/07 19:19:34;;;;;;;52.30;23.83;;;;;;;2.73;92.35;94984.88;10324387;28;20819;-73
2021/03/07 19:24:35;;;;;;;54.33;24.13;;;;;;;2.49;98.04;94977.72;10325836;28;20026;-75
2021/03/07 19:29:35;;;;;;;46.53;23.90;;;;;;;2.31;100.00;94986.41;10317316;28;20041;-73
2021/03/07 19:34:36;;;;;;;47.55;22.88;;;;;;;2.20;100.00;94985.25;10325098;28;20034;-73
2021/03/07 19:39:36;;;;;;;48.10;23.40;;;;;;;2.11;100.00;94981.22;10323807;28;20165;-73
2021/03/07 19:44:37;;;;;;;46.17;22.40;;;;;;;2.07;100.00;94986.16;10325056;28;20069;-73
2021/03/07 19:49:37;;;;;;;50.42;26.05;;;;;;;2.00;100.00;94985.41;10324623;28;20031;-73
2021/03/07 19:54:38;;;;;;;53.00;24.45;;;;;;;2.01;100.00;94997.59;10315004;28;20027;-73
2021/03/07 19:59:38;;;;;;;47.40;20.90;;;;;;;1.87;100.00;94992.38;10292404;28;20121;-73
2021/03/07 20:04:38;;;;;;;48.53;20.27;;;;;;;1.88;100.00;94999.31;10310661;28;20277;-73
2021/03/07 20:09:39;;;;;;;45.00;18.25;;;;;;;1.84;100.00;95002.59;10295121;28;20117;-73
2021/03/07 20:14:39;;;;;;;39.75;18.60;;;;;;;1.70;100.00;95001.84;10309644;28;20034;-73
2021/03/07 20:19:40;;;;;;;39.10;18.53;;;;;;;1.59;100.00;94998.03;10323668;28;20087;-74
2021/03/07 20:24:40;;;;;;;38.13;18.97;;;;;;;1.47;100.00;95003.16;10324278;28;20030;-74
2021/03/07 20:29:41;;;;;;;36.97;19.83;;;;;;;1.39;100.00;94995.44;10318457;28;20281;-73
2021/03/07 20:34:41;;;;;;;39.00;18.83;;;;;;;1.27;100.00;94992.66;10302832;28;20769;-73
2021/03/07 20:39:42;;;;;;;34.40;18.00;;;;;;;1.27;100.00;94992.66;10312160;28;20312;-73
2021/03/07 20:44:42;;;;;;;39.40;18.33;;;;;;;1.16;100.00;94993.28;10290416;28;20038;-73
2021/03/07 20:49:42;;;;;;;35.83;19.40;;;;;;;1.02;100.00;94984.56;10322559;28;20030;-73
2021/03/07 20:54:43;;;;;;;38.13;21.27;;;;;;;1.03;100.00;94988.81;10323314;28;20113;-73
2021/03/07 20:59:44;;;;;;;46.03;21.52;;;;;;;1.00;100.00;94976.00;10322153;28;20068;-73
2021/03/07 21:04:45;;;;;;;38.67;19.23;;;;;;;0.93;100.00;94970.72;10322824;28;20030;-73
2021/03/07 21:09:45;;;;;;;37.47;20.27;;;;;;;0.87;100.00;94971.56;10330216;28;20041;-73
2021/03/07 21:14:45;;;;;;;38.83;19.77;;;;;;;0.86;100.00;94964.63;10327652;28;20292;-73
2021/03/07 21:19:46;;;;;;;37.35;19.92;;;;;;;0.87;100.00;94960.97;10290320;28;20673;-73
2021/03/07 21:24:46;;;;;;;37.40;17.65;;;;;;;0.80;100.00;94968.13;10323895;28;20760;-73
2021/03/07 21:29:47;;;;;;;37.35;19.05;;;;;;;0.68;100.00;94966.09;10322234;28;20038;-74
2021/03/07 21:34:48;;;;;;;35.88;17.48;;;;;;;0.68;100.00;94957.34;10330276;28;20426;-74
2021/03/07 21:39:48;;;;;;;38.80;19.38;;;;;;;0.66;100.00;94957.53;10329069;28;20042;-74
2021/03/07 21:44:48;;;;;;;38.45;19.73;;;;;;;0.64;100.00;94954.31;10327002;28;20030;-74
2021/03/07 21:49:49;;;;;;;49.70;21.08;;;;;;;0.56;100.00;94949.22;10326745;28;20069;-74
2021/03/07 21:54:49;;;;;;;38.75;21.55;;;;;;;0.54;100.00;94939.88;10328265;28;20351;-74
2021/03/07 21:59:50;;;;;;;45.67;21.30;;;;;;;0.40;100.00;94949.63;10327777;28;20061;-74
2021/03/07 22:04:50;;;;;;;50.97;23.35;;;;;;;0.38;100.00;94949.84;10327896;28;20273;-74
2021/03/07 22:09:50;;;;;;;45.20;21.27;;;;;;;0.27;100.00;94935.41;10327512;28;20041;-74
2021/03/07 22:14:51;;;;;;;46.83;22.70;;;;;;;0.32;100.00;94940.91;10327431;28;20281;-74
2021/03/07 22:19:51;;;;;;;52.87;27.63;;;;;;;0.26;100.00;94943.53;10324236;28;20057;-74
2021/03/07 22:24:51;;;;;;;46.07;24.53;;;;;;;0.19;100.00;94935.59;10325092;28;20026;-74
2021/03/07 22:29:52;;;;;;;50.77;27.43;;;;;;;0.16;100.00;94936.00;10323490;28;20023;-74
2021/03/07 22:34:52;;;;;;;54.35;25.65;;;;;;;-0.11;100.00;94943.09;10323372;28;20427;-74
2021/03/07 22:39:53;;;;;;;63.60;28.90;;;;;;;-0.33;100.00;94929.28;10321690;28;20133;-74
2021/03/07 22:44:53;;;;;;;63.40;30.77;;;;;;;-0.49;100.00;94930.44;10321977;28;20277;-74
2021/03/07 22:49:53;;;;;;;64.53;33.33;;;;;;;-0.50;100.00;94927.00;10302471;28;20023;-74
2021/03/07 22:54:54;;;;;;;58.23;28.53;;;;;;;-0.50;100.00;94913.78;10280627;28;20037;-74
2021/03/07 22:59:54;;;;;;;61.60;33.60;;;;;;;-0.52;100.00;94906.06;10282858;28;20286;-74
2021/03/07 23:04:55;;;;;;;68.28;32.58;;;;;;;-0.48;100.00;94909.09;10282331;28;20278;-74